Time;durP1;ratioP1;P1;durP2;ratioP2;P2;SDS_P1;SDS_P2;PMS_P1;PMS_P2;Temp;Humidity;BMP_temperature;BMP_pressure;BME280_temperature;BME280_humidity;BME280_pressure;Samples;Min_cycle;Max_cycle;Signal;HPM_P1;HPM_P2
2022/11/30 00:02:56;;;;;;;2.67;1.98;;;;;;;16.00;93.18;101879.66;20996202;28;20515;-87
2022/11/30 00:12:57;;;;;;;3.42;2.00;;;;;;;16.18;93.26;101915.19;20992930;28;20043;-87
2022/11/30 00:22:59;;;;;;;2.67;1.85;;;;;;;16.09;92.96;101903.22;21001070;28;20416;-86
2022/11/30 00:33:00;;;;;;;2.65;1.80;;;;;;;16.19;93.09;101921.41;20991645;28;20043;-87
2022/11/30 00:43:02;;;;;;;3.17;2.00;;;;;;;16.19;92.92;101919.59;20968437;28;20086;-87
2022/11/30 00:53:03;;;;;;;3.92;2.40;;;;;;;16.19;92.93;101910.66;21012387;28;20127;-87
2022/11/30 01:03:05;;;;;;;2.40;1.90;;;;;;;16.18;92.71;101906.25;21021553;28;20522;-86
2022/11/30 01:13:07;;;;;;;2.67;2.13;;;;;;;16.18;92.89;101914.31;21017108;28;20048;-87
2022/11/30 01:23:09;;;;;;;3.67;2.35;;;;;;;15.90;92.74;101886.53;21021007;28;20052;-87
2022/11/30 01:33:10;;;;;;;2.83;2.10;;;;;;;16.08;92.74;101922.97;21001552;28;20052;-87
2022/11/30 01:43:18;;;;;;;2.80;1.83;;;;;;;16.17;92.63;101939.47;21002547;28;20543;-85
2022/11/30 01:53:19;;;;;;;3.45;2.45;;;;;;;16.17;92.62;101942.16;20979243;28;20466;-86
2022/11/30 02:03:36;;;;;;;2.42;2.00;;;;;;;16.16;92.57;101943.09;21005543;28;20075;-87
2022/11/30 02:14:09;;;;;;;2.78;2.08;;;;;;;16.16;92.39;101951.16;21014742;28;20060;-87
2022/11/30 02:24:22;;;;;;;2.45;1.98;;;;;;;16.16;92.36;101948.47;21002004;28;20041;-86
2022/11/30 02:34:26;;;;;;;2.58;1.90;;;;;;;15.83;92.44;101890.56;21011413;28;20053;-87
2022/11/30 02:44:28;;;;;;;3.08;2.05;;;;;;;16.16;92.47;101948.47;20993536;28;20051;-86
2022/11/30 02:54:29;;;;;;;3.03;2.40;;;;;;;15.86;92.36;101901.09;21020170;28;20048;-87
2022/11/30 03:04:31;;;;;;;3.40;2.00;;;;;;;16.15;92.33;101950.31;21005775;28;20109;-86
2022/11/30 03:14:32;;;;;;;3.38;2.42;;;;;;;16.15;92.16;101950.31;21015872;28;20044;-87
2022/11/30 03:24:34;;;;;;;3.00;2.30;;;;;;;15.85;92.08;101899.38;20987037;28;20396;-86
2022/11/30 03:34:35;;;;;;;3.30;2.30;;;;;;;16.15;92.14;101961.06;21007540;28;20056;-87
2022/11/30 03:44:37;;;;;;;2.95;2.20;;;;;;;16.15;91.95;101954.81;21011072;28;20055;-86
2022/11/30 03:54:38;;;;;;;2.38;1.98;;;;;;;16.14;92.01;101961.16;20990911;28;20044;-86
2022/11/30 04:04:40;;;;;;;2.95;2.40;;;;;;;15.91;91.95;101936.63;20998058;28;20051;-87
2022/11/30 04:14:41;;;;;;;3.50;2.60;;;;;;;16.15;91.91;101979.00;21004899;28;20628;-87
2022/11/30 04:24:42;;;;;;;3.35;2.47;;;;;;;16.14;92.00;101988.00;21011825;28;20055;-87
2022/11/30 04:34:44;;;;;;;3.38;2.72;;;;;;;15.83;91.81;101944.25;21007053;28;20055;-87
2022/11/30 04:44:46;;;;;;;3.20;2.50;;;;;;;16.08;91.79;101987.44;21019804;28;20523;-87
2022/11/30 04:55:38;;;;;;;3.08;2.40;;;;;;;16.14;91.63;101993.38;21030484;28;20093;-87
2022/11/30 05:05:39;;;;;;;3.47;2.75;;;;;;;16.13;91.62;101997.03;20996437;28;20048;-87
2022/11/30 05:15:41;;;;;;;3.15;2.58;;;;;;;16.12;91.67;102000.69;21023782;28;20074;-87
2022/11/30 05:25:43;;;;;;;3.47;2.45;;;;;;;16.13;91.47;102010.47;20972268;28;20220;-87
2022/11/30 05:35:44;;;;;;;3.20;2.72;;;;;;;15.96;91.59;101982.88;20999135;28;20071;-86
2022/11/30 05:45:46;;;;;;;3.45;2.72;;;;;;;16.12;91.51;102017.66;21013371;28;20148;-86
2022/11/30 05:55:47;;;;;;;3.05;2.55;;;;;;;16.12;91.44;102019.50;21031549;28;20055;-87
2022/11/30 06:05:52;;;;;;;4.28;2.80;;;;;;;16.02;91.32;102009.34;21048864;28;20051;-86
2022/11/30 06:15:53;;;;;;;4.83;3.30;;;;;;;16.15;92.11;102024.66;21107559;28;20400;-88
2022/11/30 06:25:55;;;;;;;4.57;3.50;;;;;;;15.93;92.20;101967.78;21115850;28;20131;-96
2022/11/30 06:35:56;;;;;;;6.68;4.53;;;;;;;16.38;89.58;102026.75;21140477;28;20092;-89
2022/11/30 06:45:58;;;;;;;6.38;4.63;;;;;;;16.46;88.95;102038.84;21037636;28;20173;-93
2022/11/30 06:56:03;;;;;;;5.43;4.25;;;;;;;16.32;88.99;102005.63;21029604;28;20520;-90
2022/11/30 07:06:12;;;;;;;7.85;5.13;;;;;;;16.54;88.88;102052.63;21020541;28;20056;-95
2022/11/30 07:16:14;;;;;;;8.05;5.20;;;;;;;16.59;87.37;102071.16;20981694;28;20047;-94
2022/11/30 07:26:15;;;;;;;6.93;4.60;;;;;;;16.62;87.08;102093.31;21010816;28;20060;-95
2022/11/30 07:36:19;;;;;;;9.38;5.30;;;;;;;16.67;91.27;102101.09;20991922;28;20051;-88
2022/11/30 07:46:20;;;;;;;8.25;5.43;;;;;;;16.68;93.82;102108.22;20984784;28;20137;-88
2022/11/30 07:56:22;;;;;;;6.85;5.28;;;;;;;16.47;95.35;102088.94;20968859;28;20054;-88
2022/11/30 08:06:29;;;;;;;7.28;4.90;;;;;;;16.61;94.81;102126.56;20982062;28;20051;-92
2022/11/30 08:16:35;;;;;;;9.30;6.10;;;;;;;16.67;100.00;102138.75;21009484;28;20059;-88
2022/11/30 08:26:36;;;;;;;11.38;5.63;;;;;;;16.65;100.00;102146.91;20974154;28;20044;-88
2022/11/30 08:36:39;;;;;;;6.97;4.57;;;;;;;16.62;100.00;102163.22;20998800;28;20055;-87
2022/11/30 08:46:40;;;;;;;9.13;4.97;;;;;;;16.36;100.00;102124.56;20986428;28;20056;-86
2022/11/30 08:56:58;;;;;;;5.88;4.15;;;;;;;16.41;99.48;102143.94;21005724;28;20071;-86
2022/11/30 09:06:59;;;;;;;7.85;5.13;;;;;;;16.45;99.38;102168.81;21031632;28;20056;-84
2022/11/30 09:17:01;;;;;;;6.00;4.75;;;;;;;16.42;99.16;102182.44;20988341;28;20466;-84
2022/11/30 09:27:02;;;;;;;6.78;4.97;;;;;;;16.20;98.70;102159.56;21005500;28;20044;-84
2022/11/30 09:37:04;;;;;;;6.47;4.70;;;;;;;16.02;98.42;102132.88;21018751;28;20093;-84
2022/11/30 09:47:08;;;;;;;6.38;4.50;;;;;;;16.33;98.20;102179.34;21022811;28;20048;-84
2022/11/30 09:57:28;;;;;;;6.43;4.53;;;;;;;16.23;97.85;102162.94;21049431;28;20060;-85
2022/11/30 10:07:43;;;;;;;6.05;3.97;;;;;;;16.29;97.63;102175.13;21001883;28;20036;-85
2022/11/30 10:17:54;;;;;;;4.83;3.70;;;;;;;16.28;97.46;102172.53;21013637;28;20083;-85
2022/11/30 10:28:18;;;;;;;5.38;4.03;;;;;;;16.28;97.39;102175.25;21014489;28;20123;-84
2022/11/30 10:38:43;;;;;;;4.18;3.75;;;;;;;16.28;97.28;102181.47;21002636;28;20043;-89
2022/11/30 10:48:58;;;;;;;5.70;4.00;;;;;;;16.13;97.16;102155.53;20997333;28;20056;-85
2022/11/30 10:59:11;;;;;;;5.25;4.13;;;;;;;16.08;96.87;102170.13;20982993;28;20298;-86
2022/11/30 11:09:26;;;;;;;5.25;3.65;;;;;;;16.24;96.57;102180.81;21001849;28;20560;-87
2022/11/30 11:19:47;;;;;;;5.20;3.90;;;;;;;16.17;96.42;102170.50;21006847;28;20120;-84
2022/11/30 11:30:25;;;;;;;4.57;3.40;;;;;;;16.23;96.39;102194.31;21002704;28;20055;-84
2022/11/30 11:40:26;;;;;;;4.72;3.65;;;;;;;16.22;96.20;102195.28;20996546;28;20132;-84
2022/11/30 11:50:28;;;;;;;5.35;3.60;;;;;;;16.20;95.96;102190.00;21023144;28;20138;-84
2022/11/30 12:00:50;;;;;;;4.45;3.47;;;;;;;16.07;95.97;102176.44;21023123;28;20045;-89
2022/11/30 12:11:18;;;;;;;5.63;3.78;;;;;;;16.19;95.51;102190.09;20993433;28;20139;-88
2022/11/30 12:21:39;;;;;;;4.82;3.88;;;;;;;16.18;95.66;102201.78;21012025;28;20048;-86
2022/11/30 12:31:44;;;;;;;4.05;3.42;;;;;;;16.17;95.54;102186.63;21039078;28;20140;-86
2022/11/30 12:41:49;;;;;;;5.40;3.77;;;;;;;15.91;95.31;102146.97;21040745;28;20048;-86
2022/11/30 12:52:16;;;;;;;;;;;;;;;16.17;95.25;102198.25;21048878;28;20131;-86
2022/11/30 13:02:32;;;;;;;4.27;3.57;;;;;;;16.14;95.18;102202.94;21056770;28;19923;-86
2022/11/30 13:12:36;;;;;;;4.97;3.55;;;;;;;16.16;95.19;102219.84;21055978;28;20044;-85
2022/11/30 13:22:46;;;;;;;3.70;3.20;;;;;;;16.14;95.04;102222.63;21054894;28;20047;-86
2022/11/30 13:32:48;;;;;;;4.35;3.40;;;;;;;16.14;94.74;102208.31;21054671;28;20591;-86
2022/11/30 13:42:59;;;;;;;4.65;3.55;;;;;;;16.13;94.77;102220.91;21021111;28;20496;-86
2022/11/30 13:53:45;;;;;;;4.30;3.42;;;;;;;16.12;94.62;102224.50;21034783;28;20048;-86
2022/11/30 14:04:18;;;;;;;3.70;3.28;;;;;;;16.12;94.49;102229.88;21047854;28;20516;-86
2022/11/30 14:14:42;;;;;;;5.13;3.22;;;;;;;16.11;94.62;102238.91;21051273;28;20136;-86
2022/11/30 14:24:47;;;;;;;4.03;3.40;;;;;;;15.78;94.52;102178.16;21015250;28;20055;-85
2022/11/30 14:34:51;;;;;;;5.13;3.50;;;;;;;16.04;94.27;102237.53;21031289;28;20131;-85
2022/11/30 14:44:54;;;;;;;4.10;3.22;;;;;;;16.11;94.05;102243.44;21022629;28;20044;-86
2022/11/30 14:55:08;;;;;;;4.25;3.40;;;;;;;16.09;94.07;102263.19;21047029;28;20059;-86
2022/11/30 15:05:25;;;;;;;5.05;3.53;;;;;;;16.09;94.00;102265.00;21047442;28;20086;-86
2022/11/30 15:15:30;;;;;;;4.07;3.38;;;;;;;16.08;94.28;102266.84;21028796;28;20505;-86
2022/11/30 15:25:40;;;;;;;5.05;3.60;;;;;;;15.80;93.96;102220.06;21044956;28;20078;-86
2022/11/30 15:35:45;;;;;;;5.03;4.10;;;;;;;16.08;93.72;102264.16;21025643;28;20466;-86
2022/11/30 15:46:35;;;;;;;5.13;3.88;;;;;;;16.06;93.77;102268.75;20959041;28;20052;-86
2022/11/30 15:56:56;;;;;;;4.65;3.80;;;;;;;15.80;93.59;102238.88;20943639;28;20087;-86
2022/11/30 16:06:58;;;;;;;4.97;3.60;;;;;;;16.05;93.71;102285.81;20958903;28;20048;-86
2022/11/30 16:17:00;;;;;;;3.58;3.20;;;;;;;16.05;93.46;102291.19;20964285;28;20439;-86
2022/11/30 16:27:18;;;;;;;4.20;3.60;;;;;;;16.06;93.41;102300.09;21015272;28;20105;-93
2022/11/30 16:37:20;;;;;;;5.03;4.22;;;;;;;16.06;93.24;102302.78;21053592;28;20056;-95
2022/11/30 16:47:21;;;;;;;5.57;4.10;;;;;;;16.06;93.10;102314.41;21062017;28;20047;-90
2022/11/30 16:57:23;;;;;;;5.47;4.00;;;;;;;16.01;92.85;102304.88;21031159;28;20544;-87
2022/11/30 17:07:24;;;;;;;5.82;4.35;;;;;;;16.07;92.90;102320.63;20998303;28;20055;-89
2022/11/30 17:17:26;;;;;;;5.90;4.78;;;;;;;16.06;92.66;102333.22;21004468;28;20125;-90
2022/11/30 17:27:28;;;;;;;5.35;4.00;;;;;;;16.05;92.46;102336.88;20996213;28;20044;-94
2022/11/30 17:37:29;;;;;;;6.15;4.47;;;;;;;15.87;92.11;102311.00;21010212;28;20048;-92
2022/11/30 17:47:31;;;;;;;7.03;4.80;;;;;;;16.05;92.21;102346.72;21008664;28;20056;-92
2022/11/30 17:57:32;;;;;;;5.85;4.32;;;;;;;16.04;92.28;102356.63;21009041;28;20394;-94
2022/11/30 18:07:34;;;;;;;7.30;4.65;;;;;;;16.04;92.51;102362.00;20995057;28;20056;-89
2022/11/30 18:17:35;;;;;;;5.63;4.60;;;;;;;15.94;92.47;102352.75;20997355;28;20052;-90
2022/11/30 18:27:37;;;;;;;7.45;5.13;;;;;;;16.04;92.58;102375.44;20979483;28;20056;-93
2022/11/30 18:37:38;;;;;;;6.78;4.90;;;;;;;15.77;92.73;102354.50;21010771;28;20060;-88
2022/11/30 18:47:40;;;;;;;6.95;5.30;;;;;;;15.78;92.74;102352.72;20973372;28;20425;-87
2022/11/30 18:57:42;;;;;;;7.13;4.80;;;;;;;16.04;92.79;102393.34;20975232;28;20080;-91
2022/11/30 19:07:43;;;;;;;6.53;5.28;;;;;;;16.03;92.81;102397.00;20978742;28;20058;-87
2022/11/30 19:17:45;;;;;;;6.47;4.60;;;;;;;16.04;92.78;102401.41;21002153;28;20123;-85
2022/11/30 19:27:46;;;;;;;5.72;4.70;;;;;;;16.03;92.79;102403.25;20964496;28;20055;-91
2022/11/30 19:37:50;;;;;;;7.25;5.10;;;;;;;16.03;92.90;102414.00;20982860;28;20055;-84
2022/11/30 19:47:52;;;;;;;7.22;5.50;;;;;;;16.04;93.07;102413.03;20997890;28;20070;-87
2022/11/30 19:57:53;;;;;;;8.90;5.20;;;;;;;16.04;93.24;102414.84;20979854;28;20044;-84
2022/11/30 20:07:55;;;;;;;8.35;5.47;;;;;;;16.03;93.02;102427.41;21016833;28;20051;-84
2022/11/30 20:17:57;;;;;;;8.43;5.47;;;;;;;16.04;93.06;102425.59;20990852;28;20086;-84
2022/11/30 20:27:59;;;;;;;7.65;5.57;;;;;;;15.95;92.95;102427.84;21010291;28;20040;-84
2022/11/30 20:38:00;;;;;;;7.47;5.53;;;;;;;16.03;92.98;102435.47;20971173;28;20408;-84
2022/11/30 20:48:02;;;;;;;7.00;5.10;;;;;;;16.03;92.94;102446.22;21006809;28;20067;-84
2022/11/30 20:58:03;;;;;;;7.45;5.70;;;;;;;15.92;92.94;102430.69;20969680;28;20044;-84
2022/11/30 21:08:05;;;;;;;7.63;5.65;;;;;;;16.02;92.88;102444.50;20991161;28;20044;-84
2022/11/30 21:18:06;;;;;;;7.30;5.05;;;;;;;16.01;92.96;102442.75;21017892;28;20067;-85
2022/11/30 21:28:08;;;;;;;8.68;5.60;;;;;;;16.01;92.94;102453.50;21026119;28;20131;-84
2022/11/30 21:38:09;;;;;;;5.80;4.60;;;;;;;16.00;92.86;102446.41;21014421;28;20125;-84
2022/11/30 21:48:11;;;;;;;5.72;4.50;;;;;;;16.01;92.78;102456.19;21021262;28;20048;-84
2022/11/30 21:58:12;;;;;;;6.13;4.70;;;;;;;15.97;92.67;102451.94;21014054;28;21202;-84
2022/11/30 22:08:14;;;;;;;7.50;5.43;;;;;;;15.90;92.62;102437.09;21017122;28;20404;-84
2022/11/30 22:18:15;;;;;;;7.05;4.88;;;;;;;15.98;92.62;102455.47;21016540;28;20127;-84
2022/11/30 22:28:16;;;;;;;7.55;5.45;;;;;;;15.99;92.57;102471.53;21017068;28;20048;-84
2022/11/30 22:38:18;;;;;;;7.93;5.38;;;;;;;15.99;92.52;102476.91;21009779;28;20051;-84
2022/11/30 22:48:19;;;;;;;6.85;4.35;;;;;;;15.99;92.71;102470.66;21001812;28;20055;-84
2022/11/30 22:58:21;;;;;;;6.47;4.88;;;;;;;15.86;92.56;102451.63;21010447;28;20048;-84
2022/11/30 23:08:22;;;;;;;6.80;5.05;;;;;;;15.96;92.39;102474.38;20995798;28;20060;-84
2022/11/30 23:18:32;;;;;;;6.38;4.82;;;;;;;15.97;92.30;102472.56;21011822;28;20389;-84
2022/11/30 23:28:33;;;;;;;6.95;5.10;;;;;;;15.96;92.22;102471.69;20990883;28;20093;-84
2022/11/30 23:38:35;;;;;;;7.05;5.15;;;;;;;15.97;92.26;102480.59;21009415;28;20051;-84
2022/11/30 23:48:37;;;;;;;6.78;4.95;;;;;;;15.79;92.17;102451.13;20975764;28;20621;-84
2022/11/30 23:58:38;;;;;;;6.15;4.97;;;;;;;15.80;92.11;102451.00;20992986;28;20111;-84
